Industrial Strength — D5LJ6 — position and weather

sailwx.info

Track history (hours):
 
Tides and Currents Weather Stations Pressure Air Temp Water Temp Dewpoint Dewpoint Depression Visibility Wind Speed Wind Dir Waves Ship Positions

Industrial Strength

Last reported at 2017-Sep-14 22:47 UTC. Time now 2017-Sep-26 02:13 UTC.
Position N 29°21' W 094°46'.
Warning: this ship's position is 11 days out of date.

Length 147 m; draft 6.4 m.

Type: Cargo ship. MMSI: 636017526.

Date/timePositionNaut miles runAvg speedWind from/ knotsBaromVisibWave heightAir tempDewpointWater temp
2017-Sep-14 22:47N 29°21' W 094°46'2 8.7
2017-Sep-14 22:31N 29°22' W 094°48'713.9
2017-Sep-14 22:00N 29°29' W 094°51'713.1
2017-Sep-14 21:30N 29°34' W 094°55'611.7
2017-Sep-14 21:00N 29°40' W 094°58'5 9.9
2017-Sep-14 20:30N 29°44' W 095°02'4 7.7
2017-Sep-14 20:00N 29°45' W 095°06'3 6.8
2017-Sep-14 19:30N 29°44' W 095°09'1 1.8
2017-Sep-14 18:58N 29°45' W 095°10'0 0.0
2017-Sep-14 16:37N 29°45' W 095°10'0 0.0
2017-Sep-14 14:25N 29°45' W 095°10'0 0.0
2017-Sep-14 13:28N 29°45' W 095°10'0 0.0
2017-Sep-14 12:40N 29°45' W 095°10'0 0.0
2017-Sep-14 12:25N 29°45' W 095°10'0 0.0
2017-Sep-14 11:58N 29°45' W 095°10'0 0.0
2017-Sep-14 11:28N 29°45' W 095°10'0 0.0
2017-Sep-14 10:52N 29°45' W 095°10'0 0.0
2017-Sep-14 10:29N 29°45' W 095°10'0 1.0
2017-Sep-14 10:00N 29°45' W 095°10'3 5.5
2017-Sep-14 09:29N 29°44' W 095°07'3 5.2
2017-Sep-14 09:00N 29°45' W 095°04'4 7.6
2017-Sep-14 08:30N 29°42' W 095°01'611.8
2017-Sep-14 08:00N 29°37' W 094°57'714.0
2017-Sep-14 07:30N 29°31' W 094°53'815.5
2017-Sep-14 07:01N 29°24' W 094°49'  
2017-Sep-10 20:45N 29°21' W 094°46'314.4
2017-Sep-10 20:30N 29°23' W 094°49'714.4
2017-Sep-10 20:00N 29°30' W 094°52'713.5
2017-Sep-10 19:30N 29°35' W 094°56'612.6
2017-Sep-10 19:00N 29°41' W 094°59'5 9.4
2017-Sep-10 18:30N 29°44' W 095°03'3 5.7
2017-Sep-10 17:57N 29°44' W 095°07'3 0.8
2017-Sep-10 13:53N 29°45' W 095°11'0 0.0
2017-Sep-10 13:20N 29°45' W 095°11'0 0.0
2017-Sep-10 12:53N 29°45' W 095°11'0 0.0
2017-Sep-10 00:32N 29°45' W 095°11'0 0.1
2017-Sep-10 00:29N 29°45' W 095°11'0 0.0
2017-Sep-09 16:35N 29°45' W 095°11'0 0.0
2017-Sep-09 16:20N 29°45' W 095°11'0 0.0
2017-Sep-09 12:14N 29°45' W 095°11'0 0.0
2017-Sep-09 11:32N 29°45' W 095°11'0 0.1
2017-Sep-09 11:26N 29°45' W 095°11'0 0.0
2017-Sep-09 10:59N 29°45' W 095°11'0 0.0
2017-Sep-09 10:11N 29°45' W 095°11'0 0.0
2017-Sep-09 09:47N 29°45' W 095°11'0 0.0
2017-Sep-09 09:26N 29°45' W 095°11'0 0.0
2017-Sep-09 08:56N 29°45' W 095°11'0 0.0
2017-Sep-09 08:20N 29°45' W 095°11'0 0.0
2017-Sep-09 07:56N 29°45' W 095°11'0 0.0
2017-Sep-09 05:53N 29°45' W 095°11'0 0.0
2017-Sep-09 05:27N 29°45' W 095°11'1 3.4
2017-Sep-09 05:00N 29°44' W 095°09'3 5.5
2017-Sep-09 04:30N 29°45' W 095°06'3 6.0
2017-Sep-09 04:00N 29°44' W 095°03'5 9.0
2017-Sep-09 03:30N 29°41' W 094°59'612.6
2017-Sep-09 03:00N 29°35' W 094°56'713.3
2017-Sep-09 02:30N 29°30' W 094°52'713.8
2017-Sep-09 02:00N 29°23' W 094°49'  
Track history (hours):
 
Tides and Currents Weather Stations Pressure Air Temp Water Temp Dewpoint Dewpoint Depression Visibility Wind Speed Wind Dir Waves Ship Positions

Industrial Strength

Last reported at 2017-Sep-14 22:47 UTC. Time now 2017-Sep-26 02:13 UTC.
Position N 29°21' W 094°46'.
Warning: this ship's position is 11 days out of date.

Length 147 m; draft 6.4 m.

Type: Cargo ship. MMSI: 636017526.

Date/timePositionNaut miles runAvg speedWind from/ knotsBaromVisibWave heightAir tempDewpointWater temp
2017-Sep-14 22:47N 29°21' W 094°46'2 8.7
2017-Sep-14 22:31N 29°22' W 094°48'713.9
2017-Sep-14 22:00N 29°29' W 094°51'713.1
2017-Sep-14 21:30N 29°34' W 094°55'611.7
2017-Sep-14 21:00N 29°40' W 094°58'5 9.9
2017-Sep-14 20:30N 29°44' W 095°02'4 7.7
2017-Sep-14 20:00N 29°45' W 095°06'3 6.8
2017-Sep-14 19:30N 29°44' W 095°09'1 1.8
2017-Sep-14 18:58N 29°45' W 095°10'0 0.0
2017-Sep-14 16:37N 29°45' W 095°10'0 0.0
2017-Sep-14 14:25N 29°45' W 095°10'0 0.0
2017-Sep-14 13:28N 29°45' W 095°10'0 0.0
2017-Sep-14 12:40N 29°45' W 095°10'0 0.0
2017-Sep-14 12:25N 29°45' W 095°10'0 0.0
2017-Sep-14 11:58N 29°45' W 095°10'0 0.0
2017-Sep-14 11:28N 29°45' W 095°10'0 0.0
2017-Sep-14 10:52N 29°45' W 095°10'0 0.0
2017-Sep-14 10:29N 29°45' W 095°10'0 1.0
2017-Sep-14 10:00N 29°45' W 095°10'3 5.5
2017-Sep-14 09:29N 29°44' W 095°07'3 5.2
2017-Sep-14 09:00N 29°45' W 095°04'4 7.6
2017-Sep-14 08:30N 29°42' W 095°01'611.8
2017-Sep-14 08:00N 29°37' W 094°57'714.0
2017-Sep-14 07:30N 29°31' W 094°53'815.5
2017-Sep-14 07:01N 29°24' W 094°49'  
2017-Sep-10 20:45N 29°21' W 094°46'314.4
2017-Sep-10 20:30N 29°23' W 094°49'714.4
2017-Sep-10 20:00N 29°30' W 094°52'713.5
2017-Sep-10 19:30N 29°35' W 094°56'612.6
2017-Sep-10 19:00N 29°41' W 094°59'5 9.4
2017-Sep-10 18:30N 29°44' W 095°03'3 5.7
2017-Sep-10 17:57N 29°44' W 095°07'3 0.8
2017-Sep-10 13:53N 29°45' W 095°11'0 0.0
2017-Sep-10 13:20N 29°45' W 095°11'0 0.0
2017-Sep-10 12:53N 29°45' W 095°11'0 0.0
2017-Sep-10 00:32N 29°45' W 095°11'0 0.1
2017-Sep-10 00:29N 29°45' W 095°11'0 0.0
2017-Sep-09 16:35N 29°45' W 095°11'0 0.0
2017-Sep-09 16:20N 29°45' W 095°11'0 0.0
2017-Sep-09 12:14N 29°45' W 095°11'0 0.0
2017-Sep-09 11:32N 29°45' W 095°11'0 0.1
2017-Sep-09 11:26N 29°45' W 095°11'0 0.0
2017-Sep-09 10:59N 29°45' W 095°11'0 0.0
2017-Sep-09 10:11N 29°45' W 095°11'0 0.0
2017-Sep-09 09:47N 29°45' W 095°11'0 0.0
2017-Sep-09 09:26N 29°45' W 095°11'0 0.0
2017-Sep-09 08:56N 29°45' W 095°11'0 0.0
2017-Sep-09 08:20N 29°45' W 095°11'0 0.0
2017-Sep-09 07:56N 29°45' W 095°11'0 0.0
2017-Sep-09 05:53N 29°45' W 095°11'0 0.0
2017-Sep-09 05:27N 29°45' W 095°11'1 3.4
2017-Sep-09 05:00N 29°44' W 095°09'3 5.5
2017-Sep-09 04:30N 29°45' W 095°06'3 6.0
2017-Sep-09 04:00N 29°44' W 095°03'5 9.0
2017-Sep-09 03:30N 29°41' W 094°59'612.6
2017-Sep-09 03:00N 29°35' W 094°56'713.3
2017-Sep-09 02:30N 29°30' W 094°52'713.8
2017-Sep-09 02:00N 29°23' W 094°49'  

Dump ship's entire track history